aviador You're here:

KMAW Decoded Metar

in
Report Time2017-05-26 13:15:00
UTC Time2017-05-26 13:08:14
Flight Rules vfr VFR
Wind200° at 11 Gusting to 15 kt
W.Decomp.*RWY 18: 10.3 kt HW 3.8 kt RCW
RWY 14: 5.5 kt HW 9.5 kt RCW
W.Rank200° ranks 1
Current wind is above 200° avg. (8.7)
Visibility9999 m
Phenomena:N/A
Clouds:N/A
Expected CloudBase > 2,400 ft AGL from Temp-Dew spread
CeilingNone
Temp21°C
Dew Point15°C (69% RH)
AAT18.7°C
QNH1012 hPa
Raw Report
KMAW 261315Z AUTO 20011G15KT 10SM CLR 21/15 A2987 RMK AO2 LTG DSNT
W=

Extra information for KMAW:More info

Social comments